TimeMST,TemperatureF,Dew PointF,Humidity,Sea Level PressureIn,VisibilityMPH,Wind Direction,Wind SpeedMPH,Gust SpeedMPH,PrecipitationIn,Events,Conditions,WindDirDegrees,DateUTC
12:53 AM,42.1,30.9,65,29.58,10.0,SSW,21.9,32.2,N/A,,Mostly Cloudy,210,2012-11-10 07:53:00
1:48 AM,39.2,35.6,87,29.74,5.0,SW,21.9,47.2,0.01,Rain,Light Rain,220,2012-11-10 08:48:00
1:53 AM,39.0,35.1,86,29.57,6.0,SSW,24.2,35.7,0.01,Rain,Light Rain,210,2012-11-10 08:53:00
2:53 AM,37.0,35.1,93,29.57,7.0,SW,12.7,19.6,0.08,Rain,Light Rain,220,2012-11-10 09:53:00
3:53 AM,35.1,33.1,92,29.55,5.0,SW,11.5,19.6,0.07,Rain,Rain,230,2012-11-10 10:53:00
4:01 AM,33.8,32.0,93,29.71,5.0,SW,9.2,18.4,0.02,Snow,Light Snow,230,2012-11-10 11:01:00
4:09 AM,33.8,32.0,93,29.72,5.0,SW,9.2,-,0.03,Snow,Light Snow,230,2012-11-10 11:09:00
4:23 AM,33.8,30.2,87,29.73,2.5,WNW,9.2,-,0.04,Snow,Light Snow,290,2012-11-10 11:23:00
4:31 AM,32.0,30.2,93,29.74,1.2,West,10.4,19.6,0.05,Snow,Light Snow,270,2012-11-10 11:31:00
4:38 AM,32.0,30.2,93,29.74,0.8,WSW,11.5,20.7,0.06,Snow,Light Snow,250,2012-11-10 11:38:00
4:51 AM,32.0,30.2,93,29.73,1.0,West,10.4,-,0.08,Snow,Light Snow,260,2012-11-10 11:51:00
4:53 AM,32.0,30.0,92,29.60,1.0,West,9.2,-,0.08,Snow,Light Snow,260,2012-11-10 11:53:00
5:18 AM,32.0,30.2,93,29.75,1.2,West,15.0,20.7,0.01,Snow,Light Snow,260,2012-11-10 12:18:00
5:30 AM,32.0,30.2,93,29.77,0.8,WSW,6.9,-,0.02,Snow,Light Snow,250,2012-11-10 12:30:00
5:53 AM,30.9,28.0,89,29.66,1.2,West,9.2,20.7,0.04,Snow,Light Snow,260,2012-11-10 12:53:00
6:16 AM,30.2,26.6,86,29.79,1.5,West,8.1,-,0.01,Snow,Light Snow,260,2012-11-10 13:16:00
6:23 AM,30.2,26.6,86,29.78,0.8,WSW,5.8,-,0.01,Snow,Light Snow,250,2012-11-10 13:23:00
6:35 AM,28.4,26.6,93,29.79,1.0,WSW,6.9,19.6,0.03,Snow,Light Snow,240,2012-11-10 13:35:00
6:41 AM,28.4,26.6,93,29.80,3.0,SW,6.9,-,0.03,Snow,Light Snow,220,2012-11-10 13:41:00
6:53 AM,28.9,26.1,89,29.70,2.0,WSW,10.4,-,0.03,Snow,Light Snow,250,2012-11-10 13:53:00
6:59 AM,28.4,24.8,86,29.81,0.8,WSW,11.5,21.9,0.00,Snow,Light Snow,250,2012-11-10 13:59:00
7:10 AM,28.4,26.6,93,29.81,0.5,Variable,4.6,18.4,0.01,Fog-Snow,Snow,0,2012-11-10 14:10:00
7:14 AM,28.4,26.6,93,29.82,1.0,SW,9.2,-,0.01,Snow,Light Snow,230,2012-11-10 14:14:00
7:18 AM,28.4,24.8,86,29.82,3.0,SW,8.1,-,0.01,Snow,Light Snow,230,2012-11-10 14:18:00
7:36 AM,28.4,24.8,86,29.83,10.0,SW,8.1,-,0.01,,Overcast,230,2012-11-10 14:36:00
7:53 AM,28.9,25.0,85,29.71,3.0,Calm,Calm,-,0.01,Snow,Light Snow,0,2012-11-10 14:53:00
8:53 AM,28.9,25.0,85,29.74,9.0,SW,9.2,-,0.00,,Overcast,230,2012-11-10 15:53:00
9:08 AM,30.2,24.8,80,29.84,10.0,WSW,10.4,19.6,N/A,,Overcast,240,2012-11-10 16:08:00
9:45 AM,30.2,24.8,80,29.85,10.0,SW,12.7,23.0,N/A,,Mostly Cloudy,230,2012-11-10 16:45:00
9:53 AM,28.9,23.0,78,29.76,10.0,SW,15.0,20.7,N/A,,Scattered Clouds,230,2012-11-10 16:53:00
10:53 AM,30.0,21.9,72,29.78,10.0,SW,16.1,21.9,N/A,,Scattered Clouds,230,2012-11-10 17:53:00
11:53 AM,32.0,21.9,66,29.77,10.0,SW,16.1,-,N/A,,Scattered Clouds,230,2012-11-10 18:53:00
12:53 PM,34.0,19.9,56,29.73,10.0,WSW,17.3,27.6,N/A,,Partly Cloudy,250,2012-11-10 19:53:00
1:53 PM,35.1,18.0,50,29.72,10.0,WSW,19.6,29.9,N/A,,Partly Cloudy,240,2012-11-10 20:53:00
2:53 PM,33.1,17.1,52,29.74,10.0,West,13.8,-,N/A,,Mostly Cloudy,270,2012-11-10 21:53:00
3:53 PM,32.0,14.0,48,29.76,10.0,WSW,21.9,28.8,N/A,,Mostly Cloudy,250,2012-11-10 22:53:00
4:53 PM,28.9,18.0,64,29.80,10.0,West,8.1,-,N/A,,Mostly Cloudy,260,2012-11-10 23:53:00
5:53 PM,27.0,19.0,72,29.84,10.0,WSW,4.6,-,N/A,,Mostly Cloudy,240,2012-11-11 00:53:00
6:53 PM,26.1,19.9,78,29.88,5.0,WNW,4.6,-,0.00,Snow,Light Snow,290,2012-11-11 01:53:00
7:16 PM,24.8,19.4,80,29.89,2.0,WSW,3.5,-,0.00,Snow,Light Snow,240,2012-11-11 02:16:00
7:19 PM,24.8,21.2,86,29.89,1.0,SW,5.8,-,0.00,Snow,Light Snow,230,2012-11-11 02:19:00
7:27 PM,24.8,21.2,86,29.89,0.5,WSW,3.5,-,0.01,Fog-Snow,Snow,240,2012-11-11 02:27:00
7:35 PM,24.8,21.2,86,29.89,1.0,Calm,Calm,-,0.01,Snow,Light Snow,0,2012-11-11 02:35:00
7:53 PM,24.1,21.9,91,29.89,1.2,Calm,Calm,-,0.01,Snow,Light Snow,0,2012-11-11 02:53:00
8:06 PM,23.0,21.2,93,29.89,1.2,South,3.5,-,0.01,Snow,Light Snow,180,2012-11-11 03:06:00
8:11 PM,21.2,19.4,93,29.89,4.0,South,3.5,-,0.01,Snow,Light Snow,180,2012-11-11 03:11:00
8:24 PM,21.2,19.4,93,29.89,10.0,SSW,3.5,-,0.01,,Mostly Cloudy,200,2012-11-11 03:24:00
8:42 PM,24.8,19.4,80,29.90,2.5,SW,3.5,-,0.01,Snow,Light Snow,230,2012-11-11 03:42:00
8:51 PM,24.8,21.2,86,29.90,1.2,SSW,3.5,-,0.02,Snow,Light Snow,210,2012-11-11 03:51:00
8:53 PM,24.1,21.0,88,29.88,1.2,SSW,5.8,-,0.02,Snow,Light Snow,200,2012-11-11 03:53:00
8:58 PM,23.0,21.2,93,29.89,2.5,SSW,5.8,-,0.00,Snow,Light Snow,200,2012-11-11 03:58:00
9:00 PM,23.0,21.2,93,29.89,4.0,SSW,5.8,-,0.00,Snow,Light Snow,200,2012-11-11 04:00:00
9:11 PM,21.2,19.4,93,29.90,10.0,SSW,5.8,-,0.00,,Mostly Cloudy,200,2012-11-11 04:11:00
9:53 PM,23.0,19.0,85,29.90,10.0,WSW,4.6,-,0.00,,Scattered Clouds,250,2012-11-11 04:53:00
10:53 PM,24.1,17.1,75,29.90,10.0,West,3.5,-,N/A,,Mostly Cloudy,260,2012-11-11 05:53:00
11:53 PM,21.9,16.0,78,29.92,10.0,Calm,Calm,-,N/A,,Mostly Cloudy,0,2012-11-11 06:53:00